Time;durP1;ratioP1;P1;durP2;ratioP2;P2;SDS_P1;SDS_P2;PMS_P1;PMS_P2;Temp;Humidity;BMP_temperature;BMP_pressure;BME280_temperature;BME280_humidity;BME280_pressure;Samples;Min_cycle;Max_cycle;Signal;HPM_P1;HPM_P2
2022/03/23 00:01:42;;;;;;;20.92;8.10;;;;;;;4.27;58.12;102127.75;5000228;28;20054;-75
2022/03/23 00:04:07;;;;;;;15.82;8.43;;;;;;;4.12;58.65;102134.72;5001643;28;20129;-75
2022/03/23 00:06:34;;;;;;;18.73;8.52;;;;;;;4.41;57.93;102147.56;5002996;28;20034;-75
2022/03/23 00:09:01;;;;;;;19.85;10.77;;;;;;;4.35;57.71;102141.16;5001951;28;20053;-74
2022/03/23 00:11:27;;;;;;;18.42;9.57;;;;;;;4.35;58.60;102154.16;5000158;28;20034;-75
2022/03/23 00:13:54;;;;;;;17.70;9.00;;;;;;;4.62;57.55;102159.91;5000918;28;20124;-74
2022/03/23 00:16:20;;;;;;;22.17;9.27;;;;;;;4.53;57.44;102151.63;5001381;28;20076;-74
2022/03/23 00:18:46;;;;;;;22.08;8.90;;;;;;;4.34;57.23;102111.69;4990128;28;20053;-74
2022/03/23 00:21:12;;;;;;;18.50;8.57;;;;;;;3.90;58.63;102127.47;4992740;28;20034;-74
2022/03/23 00:23:42;;;;;;;14.93;9.13;;;;;;;4.22;57.93;102117.13;4977929;28;20045;-73
2022/03/23 00:26:08;;;;;;;15.27;9.10;;;;;;;4.15;58.04;102119.31;4999752;28;20034;-75
2022/03/23 00:28:34;;;;;;;20.55;8.55;;;;;;;4.20;57.96;102125.66;4983730;28;20041;-74
2022/03/23 00:31:00;;;;;;;19.40;7.75;;;;;;;4.42;57.57;102127.66;5001717;28;20018;-74
2022/03/23 00:33:25;;;;;;;20.23;8.40;;;;;;;4.09;58.00;102122.47;5001304;28;20038;-73
2022/03/23 00:35:51;;;;;;;16.88;7.90;;;;;;;4.11;57.63;102118.25;4999828;28;20397;-73
2022/03/23 00:38:18;;;;;;;20.90;8.85;;;;;;;4.17;58.45;102156.66;5000860;28;20378;-74
2022/03/23 00:40:44;;;;;;;22.92;8.95;;;;;;;4.29;58.37;102135.66;4999384;28;22562;-74
2022/03/23 00:43:11;;;;;;;13.05;8.60;;;;;;;4.25;57.82;102146.69;4981705;28;20058;-74
2022/03/23 00:45:38;;;;;;;29.38;9.35;;;;;;;4.33;57.91;102138.50;5002262;28;20069;-74
2022/03/23 00:48:04;;;;;;;23.50;9.27;;;;;;;4.28;58.43;102157.22;5000072;28;20044;-74
2022/03/23 00:50:30;;;;;;;18.95;10.10;;;;;;;4.03;58.48;102111.75;4998590;28;20050;-74
2022/03/23 00:52:56;;;;;;;18.48;8.27;;;;;;;3.97;58.39;102116.63;4999752;28;20089;-74
2022/03/23 00:55:22;;;;;;;16.27;8.35;;;;;;;4.10;58.64;102128.56;5001148;28;20121;-74
2022/03/23 00:57:48;;;;;;;14.68;8.90;;;;;;;3.83;59.01;102115.84;4999943;28;20026;-74
2022/03/23 01:00:18;;;;;;;16.50;9.00;;;;;;;4.04;58.86;102110.94;4999712;28;20477;-74
2022/03/23 01:02:45;;;;;;;26.35;9.80;;;;;;;3.98;59.29;102140.09;4999596;28;20046;-74
2022/03/23 01:05:12;;;;;;;11.60;7.25;;;;;;;3.73;59.24;102119.66;5001244;28;20049;-74
2022/03/23 01:07:39;;;;;;;28.10;8.20;;;;;;;3.79;59.22;102117.41;5000478;28;20025;-75
2022/03/23 01:10:07;;;;;;;27.60;9.20;;;;;;;3.74;59.51;102126.63;5001303;28;20041;-73
2022/03/23 01:12:34;;;;;;;22.13;8.88;;;;;;;4.03;59.11;102135.13;5000690;28;20509;-73
2022/03/23 01:15:00;;;;;;;16.02;8.23;;;;;;;4.16;58.71;102118.50;4998867;28;20073;-75
2022/03/23 01:17:25;;;;;;;25.13;7.85;;;;;;;4.08;59.12;102136.28;4999877;28;20474;-73
2022/03/23 01:19:51;;;;;;;21.75;8.32;;;;;;;3.93;59.16;102114.66;4998501;28;20628;-75
2022/03/23 01:22:17;;;;;;;26.45;9.98;;;;;;;3.89;58.93;102118.81;5000917;28;20104;-75
2022/03/23 01:24:44;;;;;;;21.27;9.45;;;;;;;3.93;59.52;102125.03;5000092;28;20049;-75
2022/03/23 01:27:10;;;;;;;15.77;8.07;;;;;;;3.72;59.69;102096.19;5001014;28;20034;-74
2022/03/23 01:29:36;;;;;;;16.30;8.95;;;;;;;3.51;60.24;102080.31;5000433;28;20472;-74
2022/03/23 01:32:02;;;;;;;20.90;9.07;;;;;;;3.58;60.14;102095.44;5002022;28;20070;-74
2022/03/23 01:34:28;;;;;;;20.65;8.82;;;;;;;3.57;60.21;102104.94;5000865;28;20038;-74
2022/03/23 01:36:53;;;;;;;19.05;9.20;;;;;;;4.03;59.60;102137.75;5002346;28;20161;-74
2022/03/23 01:39:20;;;;;;;17.02;8.02;;;;;;;4.05;59.57;102140.41;5000444;28;20104;-73
2022/03/23 01:41:47;;;;;;;18.15;9.00;;;;;;;4.37;58.37;102131.72;5000950;28;20073;-74
2022/03/23 01:44:15;;;;;;;17.33;8.50;;;;;;;3.74;59.60;102113.63;5000299;28;20041;-74
2022/03/23 01:47:03;;;;;;;12.63;8.13;;;;;;;3.75;60.56;102127.53;5000543;28;20057;-74
2022/03/23 01:49:29;;;;;;;15.77;8.18;;;;;;;3.60;60.15;102093.81;4996255;28;20109;-74
2022/03/23 01:51:55;;;;;;;14.57;8.52;;;;;;;3.89;60.33;102129.19;5001463;28;20036;-74
2022/03/23 01:54:22;;;;;;;13.30;7.82;;;;;;;3.78;60.24;102131.19;5014056;28;20062;-74
2022/03/23 01:56:49;;;;;;;16.02;8.80;;;;;;;3.75;60.80;102130.13;4994183;28;20117;-74
2022/03/23 01:59:17;;;;;;;12.10;7.82;;;;;;;3.87;60.58;102136.00;4999555;28;20049;-74
2022/03/23 02:01:43;;;;;;;19.02;7.68;;;;;;;3.81;60.51;102122.66;4998498;28;20053;-74
2022/03/23 02:04:09;;;;;;;28.63;9.88;;;;;;;3.72;60.01;102088.41;4998378;28;23331;-74
2022/03/23 02:06:35;;;;;;;21.30;7.32;;;;;;;3.67;60.50;102114.09;4999664;28;20038;-74
2022/03/23 02:09:01;;;;;;;15.98;7.70;;;;;;;3.49;60.55;102085.47;4999966;28;20041;-73
2022/03/23 02:11:28;;;;;;;20.08;7.30;;;;;;;3.49;60.75;102087.13;4998273;28;20096;-74
2022/03/23 02:13:54;;;;;;;20.67;8.55;;;;;;;3.61;60.58;102105.13;5002575;28;20096;-74
2022/03/23 02:16:20;;;;;;;18.90;8.63;;;;;;;3.45;60.67;102087.78;5002524;28;20038;-74
2022/03/23 02:18:46;;;;;;;24.10;7.78;;;;;;;3.47;60.66;102076.69;5002579;28;20157;-74
2022/03/23 02:21:15;;;;;;;23.05;7.03;;;;;;;3.42;60.97;102104.09;5000736;28;20057;-74
2022/03/23 02:23:44;;;;;;;13.70;6.70;;;;;;;3.58;60.91;102126.56;5005954;28;20511;-74
2022/03/23 02:26:13;;;;;;;18.77;7.60;;;;;;;3.54;60.94;102111.66;5000201;28;20042;-74
2022/03/23 02:28:39;;;;;;;11.52;7.70;;;;;;;3.52;61.08;102106.38;5003007;28;20030;-74
2022/03/23 02:31:07;;;;;;;16.15;8.05;;;;;;;3.51;61.14;102108.88;5004506;28;20096;-74
2022/03/23 02:33:32;;;;;;;21.63;6.72;;;;;;;3.28;61.52;102090.34;5006215;28;20038;-74
2022/03/23 02:35:58;;;;;;;18.67;7.35;;;;;;;3.22;61.45;102086.50;5006186;28;20104;-74
2022/03/23 02:38:24;;;;;;;14.82;6.95;;;;;;;3.48;61.25;102101.81;5003234;28;20100;-75
2022/03/23 02:40:49;;;;;;;28.58;8.60;;;;;;;3.47;61.38;102115.63;5006092;28;20050;-74
2022/03/23 02:43:15;;;;;;;13.32;8.02;;;;;;;3.45;61.04;102095.56;5004850;28;20429;-73
2022/03/23 02:45:41;;;;;;;21.67;9.15;;;;;;;3.41;61.67;102109.19;5003294;28;20038;-74
2022/03/23 02:48:07;;;;;;;19.83;8.27;;;;;;;3.30;61.03;102075.75;5002776;28;20474;-74
2022/03/23 02:50:34;;;;;;;17.00;9.05;;;;;;;3.24;61.11;102075.41;5001907;28;20046;-74
2022/03/23 03:01:54;;;;;;;16.75;8.05;;;;;;;3.48;61.53;102106.13;5001399;28;20603;-75
2022/03/23 03:04:20;;;;;;;19.10;8.40;;;;;;;3.30;61.33;102090.41;5003612;28;20045;-74
2022/03/23 03:06:50;;;;;;;11.77;6.85;;;;;;;3.49;60.64;102077.66;4982664;28;20058;-74
2022/03/23 03:09:16;;;;;;;18.63;8.95;;;;;;;3.70;60.16;102087.41;4998563;28;20030;-75
2022/03/23 03:11:43;;;;;;;22.63;8.40;;;;;;;3.90;60.17;102110.19;5002828;28;20042;-75
2022/03/23 03:14:10;;;;;;;26.90;9.38;;;;;;;3.59;60.49;102084.25;4999911;28;20072;-73
2022/03/23 03:16:38;;;;;;;17.80;7.90;;;;;;;3.92;60.11;102108.56;5012385;28;20141;-73
2022/03/23 03:19:09;;;;;;;16.98;8.48;;;;;;;3.27;61.37;102079.84;4987541;28;20599;-74
2022/03/23 03:21:35;;;;;;;21.10;8.63;;;;;;;3.49;61.93;102106.22;5005702;28;20160;-75
2022/03/23 03:24:02;;;;;;;17.63;8.98;;;;;;;3.57;61.38;102110.13;5003591;28;20058;-74
2022/03/23 03:26:31;;;;;;;12.90;7.00;;;;;;;3.75;61.11;102120.63;5002794;28;20034;-74
2022/03/23 03:28:58;;;;;;;18.38;8.90;;;;;;;3.58;61.40;102098.94;5002488;28;20097;-73
2022/03/23 03:31:23;;;;;;;11.57;7.35;;;;;;;3.66;61.22;102106.25;5002522;28;20064;-74
2022/03/23 03:33:49;;;;;;;19.40;9.50;;;;;;;3.57;61.43;102110.13;5001939;28;20434;-74
2022/03/23 03:36:15;;;;;;;22.10;11.02;;;;;;;3.47;61.43;102068.91;5004216;28;20044;-74
2022/03/23 03:38:44;;;;;;;16.83;8.68;;;;;;;3.78;60.15;102088.75;5003832;28;20038;-74
2022/03/23 03:41:10;;;;;;;22.90;11.00;;;;;;;3.96;60.08;102102.75;5002497;28;20065;-74
2022/03/23 03:43:38;;;;;;;28.27;10.80;;;;;;;3.91;59.23;102067.84;5002894;28;20096;-74
2022/03/23 03:46:07;;;;;;;17.38;11.35;;;;;;;3.72;59.45;102094.53;5003767;28;20074;-74
2022/03/23 03:48:33;;;;;;;21.00;9.55;;;;;;;3.49;59.75;102071.56;5003010;28;20041;-75
2022/03/23 03:51:00;;;;;;;25.08;10.65;;;;;;;3.73;59.61;102070.34;4999218;28;20038;-73
2022/03/23 03:53:26;;;;;;;30.33;10.00;;;;;;;3.73;59.70;102074.63;5002577;28;20042;-74
2022/03/23 03:55:51;;;;;;;23.58;9.82;;;;;;;3.80;59.89;102076.75;5001029;28;20042;-73
2022/03/23 03:58:17;;;;;;;22.70;9.23;;;;;;;3.77;59.19;102061.91;5002811;28;20362;-73
2022/03/23 04:00:44;;;;;;;38.15;11.27;;;;;;;3.93;60.49;102105.19;4999973;28;20042;-75
2022/03/23 04:03:12;;;;;;;18.38;9.15;;;;;;;3.72;60.39;102076.34;4999572;28;20443;-74
2022/03/23 04:05:38;;;;;;;19.40;8.77;;;;;;;3.64;61.05;102088.00;5001444;28;20050;-74
2022/03/23 04:08:05;;;;;;;19.25;10.32;;;;;;;3.27;61.54;102066.88;5000477;28;20121;-73
2022/03/23 04:10:31;;;;;;;19.35;10.77;;;;;;;3.31;61.50;102059.38;5001862;28;20088;-74
2022/03/23 04:12:59;;;;;;;13.43;9.27;;;;;;;3.77;60.64;102105.16;5002607;28;20064;-73
2022/03/23 04:15:25;;;;;;;12.95;9.43;;;;;;;3.92;59.78;102105.09;5000296;28;20036;-74
2022/03/23 04:17:56;;;;;;;17.08;7.63;;;;;;;3.28;61.13;102094.63;5003637;28;20030;-74
2022/03/23 04:20:22;;;;;;;21.35;8.57;;;;;;;3.07;61.96;102083.94;5000843;28;20065;-73
2022/03/23 04:22:48;;;;;;;21.52;9.55;;;;;;;2.91;62.47;102067.47;5000754;28;20410;-73
2022/03/23 04:25:15;;;;;;;18.20;9.02;;;;;;;2.89;62.66;102076.84;5001058;28;20017;-74
2022/03/23 04:27:55;;;;;;;14.55;8.18;;;;;;;2.88;62.84;102072.50;5000365;28;20053;-74
2022/03/23 04:30:23;;;;;;;22.02;9.48;;;;;;;3.22;62.54;102120.22;5001229;28;20030;-74
2022/03/23 04:32:51;;;;;;;20.55;10.13;;;;;;;3.04;62.64;102104.47;5001192;28;20041;-74
2022/03/23 04:35:18;;;;;;;22.88;10.75;;;;;;;3.17;62.42;102115.66;5000231;28;20137;-74
2022/03/23 04:37:45;;;;;;;14.82;9.52;;;;;;;3.09;62.48;102105.63;5004170;28;20044;-74
2022/03/23 04:40:14;;;;;;;17.90;9.70;;;;;;;3.28;61.85;102110.19;4988777;28;20480;-74
2022/03/23 04:42:40;;;;;;;24.23;9.75;;;;;;;3.17;62.11;102106.97;5002930;28;20046;-74
2022/03/23 04:45:07;;;;;;;21.98;8.82;;;;;;;3.10;61.91;102081.50;5003139;28;20046;-73
2022/03/23 04:47:34;;;;;;;18.63;8.13;;;;;;;3.29;61.67;102119.75;5002327;28;20041;-75
2022/03/23 04:50:00;;;;;;;21.38;9.90;;;;;;;3.06;62.30;102108.06;4997889;28;20037;-74
2022/03/23 04:52:26;;;;;;;15.27;8.82;;;;;;;2.95;62.35;102090.19;5000466;28;20032;-74
2022/03/23 04:54:56;;;;;;;17.17;8.93;;;;;;;3.20;62.17;102119.22;4983819;28;20405;-74
2022/03/23 04:57:23;;;;;;;18.40;9.02;;;;;;;3.29;61.84;102117.16;5000003;28;20033;-74
2022/03/23 04:59:49;;;;;;;23.25;8.32;;;;;;;3.06;61.71;102090.78;5003096;28;20046;-73
2022/03/23 05:02:14;;;;;;;20.30;8.77;;;;;;;3.23;61.85;102107.34;5000959;28;20041;-74
2022/03/23 05:04:40;;;;;;;21.00;8.38;;;;;;;3.44;61.11;102117.13;5002560;28;20042;-75
2022/03/23 05:07:06;;;;;;;18.55;9.38;;;;;;;3.49;60.95;102126.97;5001856;28;20033;-75
2022/03/23 05:09:31;;;;;;;19.92;9.88;;;;;;;3.35;60.72;102083.78;5000488;28;20072;-75
2022/03/23 05:12:01;;;;;;;22.83;8.25;;;;;;;3.33;61.01;102081.09;5001746;28;20121;-77
2022/03/23 05:14:28;;;;;;;16.55;8.80;;;;;;;3.41;60.30;102088.41;5000347;28;20129;-75
2022/03/23 05:16:53;;;;;;;22.55;9.90;;;;;;;3.47;60.64;102092.25;5002755;28;20910;-74
2022/03/23 05:19:19;;;;;;;29.85;7.97;;;;;;;3.48;60.35;102088.84;5001621;28;20033;-74
2022/03/23 05:21:45;;;;;;;23.25;11.38;;;;;;;3.63;60.10;102107.00;5002127;28;20034;-75
2022/03/23 05:24:11;;;;;;;22.52;10.60;;;;;;;3.73;59.21;102096.28;5002670;28;20049;-74
2022/03/23 05:26:36;;;;;;;24.90;7.43;;;;;;;3.59;59.69;102105.91;5001085;28;20042;-76
2022/03/23 05:29:02;;;;;;;17.77;7.00;;;;;;;3.71;59.70;102104.81;5000555;28;20041;-76
2022/03/23 05:31:28;;;;;;;19.10;9.05;;;;;;;3.99;58.58;102109.81;4999139;28;20040;-74
2022/03/23 05:33:55;;;;;;;18.88;10.93;;;;;;;4.05;59.09;102128.31;4999989;28;20053;-74
2022/03/23 05:36:21;;;;;;;23.15;10.88;;;;;;;4.21;57.88;102110.16;5001874;28;20101;-74
2022/03/23 05:38:47;;;;;;;12.73;6.35;;;;;;;4.28;58.06;102133.84;5002618;28;20038;-73
2022/03/23 05:41:13;;;;;;;24.23;9.45;;;;;;;3.95;58.51;102123.41;5001454;28;20049;-74
2022/03/23 05:43:39;;;;;;;16.02;8.85;;;;;;;4.23;57.45;102097.22;4999688;28;20675;-75
2022/03/23 05:46:04;;;;;;;26.17;11.57;;;;;;;4.04;58.13;102115.25;5003027;28;20053;-74
2022/03/23 05:48:30;;;;;;;16.60;8.23;;;;;;;4.21;57.80;102114.44;5002366;28;20450;-74
2022/03/23 05:50:56;;;;;;;15.50;9.05;;;;;;;4.42;57.36;102125.06;4997967;28;20049;-74
2022/03/23 05:53:21;;;;;;;34.15;11.38;;;;;;;4.95;55.70;102142.56;5000106;28;20542;-76
2022/03/23 05:55:47;;;;;;;24.92;9.45;;;;;;;4.96;55.02;102122.63;4999550;28;20456;-76
2022/03/23 05:58:13;;;;;;;19.40;9.75;;;;;;;5.22;54.44;102132.66;4999355;28;20034;-75
2022/03/23 06:00:39;;;;;;;27.80;9.18;;;;;;;5.59;53.42;102129.22;5000525;28;20057;-74
2022/03/23 06:03:04;;;;;;;12.30;7.05;;;;;;;6.01;52.39;102137.31;5000188;28;20131;-74
2022/03/23 06:05:30;;;;;;;18.20;8.30;;;;;;;5.88;52.50;102132.34;4999571;28;20133;-75
2022/03/23 06:07:57;;;;;;;13.93;8.63;;;;;;;5.56;52.65;102115.16;4999919;28;20057;-77
2022/03/23 06:10:22;;;;;;;25.52;9.50;;;;;;;5.87;52.61;102138.34;4999113;28;20045;-76
2022/03/23 06:12:48;;;;;;;21.45;8.68;;;;;;;5.72;53.56;102134.19;5003078;28;20390;-74
2022/03/23 06:15:14;;;;;;;19.75;9.25;;;;;;;5.53;53.41;102096.81;4974435;28;20521;-76
2022/03/23 06:17:40;;;;;;;27.92;11.95;;;;;;;5.47;53.80;102087.88;5001265;28;20437;-76
2022/03/23 06:20:06;;;;;;;15.27;9.25;;;;;;;5.98;52.65;102111.13;5001635;28;20041;-74
2022/03/23 06:22:32;;;;;;;26.63;9.52;;;;;;;6.06;51.19;102093.22;5000306;28;20030;-74
2022/03/23 06:24:58;;;;;;;18.55;10.10;;;;;;;5.84;51.87;102080.91;5000638;28;20381;-75
2022/03/23 06:27:25;;;;;;;21.35;8.88;;;;;;;6.02;51.57;102079.19;5001637;28;20104;-74
2022/03/23 06:29:52;;;;;;;25.02;7.78;;;;;;;6.42;50.91;102125.28;5001059;28;20049;-75
2022/03/23 06:32:17;;;;;;;24.52;10.00;;;;;;;6.43;49.93;102103.59;4998045;28;20037;-75
2022/03/23 06:34:43;;;;;;;27.65;10.13;;;;;;;6.78;49.42;102130.31;5007415;28;20485;-74
2022/03/23 06:37:09;;;;;;;20.52;8.25;;;;;;;6.43;48.78;102087.06;5000126;28;20030;-74
2022/03/23 06:39:35;;;;;;;15.45;8.55;;;;;;;6.29;49.33;102095.16;5006859;28;20126;-76
2022/03/23 06:42:01;;;;;;;18.70;8.88;;;;;;;6.78;49.09;102135.53;4998181;28;21558;-74
2022/03/23 06:44:27;;;;;;;17.25;7.55;;;;;;;7.02;48.75;102125.25;5000063;28;20096;-76
2022/03/23 06:46:52;;;;;;;19.02;9.18;;;;;;;6.61;48.56;102115.66;4999434;28;20153;-74
2022/03/23 06:49:18;;;;;;;13.52;7.57;;;;;;;7.08;48.73;102137.69;4997986;28;20069;-75
2022/03/23 06:51:44;;;;;;;14.98;6.55;;;;;;;6.69;48.76;102091.66;4997642;28;20038;-74
2022/03/23 06:54:09;;;;;;;20.20;9.93;;;;;;;7.12;49.45;102118.72;4999239;28;20041;-74
2022/03/23 06:56:35;;;;;;;38.72;9.65;;;;;;;7.15;49.10;102092.72;4997520;28;20092;-75
2022/03/23 06:59:04;;;;;;;18.67;9.50;;;;;;;7.32;48.38;102109.97;4981399;28;20054;-74
2022/03/23 07:01:30;;;;;;;31.52;10.30;;;;;;;7.59;47.81;102136.31;4999282;28;20109;-74
2022/03/23 07:03:56;;;;;;;18.50;7.35;;;;;;;7.39;47.22;102103.25;5000540;28;21225;-75
2022/03/23 07:06:22;;;;;;;26.35;7.28;;;;;;;7.47;45.99;102132.28;5000329;28;20133;-74
2022/03/23 07:11:32;;;;;;;19.83;7.35;;;;;;;7.67;44.47;102086.06;5003650;28;20089;-75
2022/03/23 07:13:57;;;;;;;19.08;7.80;;;;;;;7.24;45.14;102090.50;5004942;28;20065;-75
2022/03/23 07:16:23;;;;;;;22.67;6.63;;;;;;;7.28;45.26;102101.94;5002495;28;20042;-74
2022/03/23 07:18:49;;;;;;;40.97;9.23;;;;;;;7.43;44.49;102104.28;5003006;28;20022;-74
2022/03/23 07:21:15;;;;;;;16.95;6.80;;;;;;;7.46;44.84;102125.31;5001630;28;20057;-74
2022/03/23 07:23:43;;;;;;;14.75;7.70;;;;;;;7.50;45.19;102112.44;5004516;28;20121;-75
2022/03/23 07:26:09;;;;;;;25.70;7.07;;;;;;;7.65;44.88;102104.28;5003835;28;20046;-75
2022/03/23 07:28:35;;;;;;;20.10;7.00;;;;;;;7.96;43.83;102090.72;5002235;28;20038;-74
2022/03/23 07:31:00;;;;;;;16.55;5.85;;;;;;;8.21;43.44;102102.94;5002445;28;20417;-74
2022/03/23 07:33:28;;;;;;;20.80;7.88;;;;;;;8.56;43.02;102134.75;5001622;28;20041;-73
2022/03/23 07:35:54;;;;;;;10.18;6.15;;;;;;;7.96;41.64;102123.78;5004317;28;20567;-75
2022/03/23 07:38:20;;;;;;;12.55;6.28;;;;;;;8.48;40.82;102114.41;5006049;28;20037;-74
2022/03/23 07:40:45;;;;;;;8.85;5.30;;;;;;;8.50;40.49;102115.34;5002737;28;20042;-75
2022/03/23 07:43:11;;;;;;;35.10;5.80;;;;;;;8.23;40.28;102087.31;5002595;28;20038;-73
2022/03/23 07:45:37;;;;;;;24.00;6.50;;;;;;;8.51;40.49;102124.97;5002147;28;20057;-78
2022/03/23 07:48:03;;;;;;;35.97;10.90;;;;;;;8.31;40.05;102106.81;5003637;28;20038;-74
2022/03/23 07:50:29;;;;;;;12.00;4.45;;;;;;;8.53;39.90;102113.75;5002794;28;20037;-75
2022/03/23 07:52:55;;;;;;;10.73;6.22;;;;;;;8.60;39.37;102120.09;5003585;28;20572;-75
2022/03/23 07:55:21;;;;;;;12.10;5.65;;;;;;;8.54;40.11;102112.00;5003914;28;20116;-77
2022/03/23 07:57:48;;;;;;;12.82;5.28;;;;;;;8.69;39.22;102081.16;5003868;28;20145;-76
2022/03/23 08:00:16;;;;;;;29.98;5.43;;;;;;;8.46;38.73;102082.97;5001693;28;20046;-75
2022/03/23 08:02:41;;;;;;;11.35;5.25;;;;;;;9.24;38.04;102122.28;5006527;28;20045;-73
2022/03/23 08:05:09;;;;;;;19.98;7.43;;;;;;;8.68;38.62;102073.25;5006956;28;20433;-74
2022/03/23 08:07:34;;;;;;;13.02;7.57;;;;;;;9.53;37.47;102109.25;4996970;28;20061;-73
2022/03/23 08:10:00;;;;;;;9.15;6.30;;;;;;;9.46;37.38;102121.25;5001122;28;20080;-74
2022/03/23 08:12:26;;;;;;;16.80;6.65;;;;;;;9.52;37.05;102105.72;5002872;28;20433;-74
2022/03/23 08:14:52;;;;;;;16.27;5.78;;;;;;;9.51;37.84;102108.31;5001268;28;20053;-73
2022/03/23 08:17:19;;;;;;;18.45;4.95;;;;;;;9.16;37.38;102087.09;5002011;28;20049;-74
2022/03/23 08:20:32;;;;;;;12.45;5.05;;;;;;;9.48;37.21;102103.88;5001720;28;20068;-73
2022/03/23 08:22:31;;;;;;;13.63;5.03;;;;;;;9.27;37.23;102069.09;5002985;28;20034;-72
2022/03/23 08:24:56;;;;;;;17.65;5.55;;;;;;;9.23;37.20;102098.66;5000365;28;20105;-73
2022/03/23 08:27:22;;;;;;;20.95;6.60;;;;;;;9.55;36.91;102089.19;5002854;28;20076;-74
2022/03/23 08:29:49;;;;;;;10.25;6.47;;;;;;;9.34;37.12;102094.69;5001915;28;20117;-75
2022/03/23 08:32:17;;;;;;;9.68;5.18;;;;;;;9.11;37.54;102080.81;5002665;28;20053;-76
2022/03/23 08:34:43;;;;;;;21.83;4.78;;;;;;;9.45;36.47;102095.88;5001275;28;20498;-73
2022/03/23 08:37:09;;;;;;;9.10;6.00;;;;;;;9.33;37.10;102092.00;5002781;28;20026;-75
2022/03/23 08:39:35;;;;;;;20.73;7.68;;;;;;;8.92;37.29;102065.31;5003933;28;20393;-74
2022/03/23 08:42:01;;;;;;;11.38;5.95;;;;;;;9.43;36.92;102089.69;4999067;28;20069;-75
2022/03/23 08:44:26;;;;;;;11.27;6.05;;;;;;;9.08;37.11;102055.44;5001755;28;20513;-75
2022/03/23 08:46:52;;;;;;;11.57;5.78;;;;;;;9.03;36.96;102061.34;5005741;28;20050;-74
2022/03/23 08:49:18;;;;;;;26.42;6.70;;;;;;;9.29;36.84;102054.31;4998800;28;20034;-73
2022/03/23 08:51:44;;;;;;;22.77;6.55;;;;;;;9.59;36.47;102075.34;5000307;28;20053;-75
2022/03/23 08:54:10;;;;;;;13.68;6.45;;;;;;;9.28;37.45;102056.06;4995867;28;20260;-74
2022/03/23 08:56:36;;;;;;;18.48;8.02;;;;;;;9.44;37.37;102038.22;5002863;28;20127;-74
2022/03/23 08:59:01;;;;;;;20.67;7.18;;;;;;;9.69;36.78;102042.44;5000133;28;20057;-74
2022/03/23 09:01:27;;;;;;;19.75;7.60;;;;;;;9.73;36.85;102060.06;5001224;28;21049;-75
2022/03/23 09:03:53;;;;;;;13.38;6.40;;;;;;;9.68;36.31;102035.44;4983362;28;20046;-75
2022/03/23 09:06:19;;;;;;;18.02;7.45;;;;;;;10.38;35.83;102061.94;4998653;28;20061;-75
2022/03/23 09:08:45;;;;;;;17.52;8.10;;;;;;;10.71;34.94;102030.44;5002060;28;20490;-74
2022/03/23 09:11:11;;;;;;;10.95;5.90;;;;;;;10.47;35.12;102059.56;5003350;28;20117;-74
2022/03/23 09:13:36;;;;;;;10.95;5.38;;;;;;;10.40;34.88;102048.00;5000973;28;20036;-73
2022/03/23 09:16:03;;;;;;;18.33;6.15;;;;;;;10.77;34.01;102030.63;5003394;28;20030;-74
2022/03/23 09:18:29;;;;;;;11.57;5.22;;;;;;;10.78;33.92;102030.63;4992172;28;20162;-74
2022/03/23 09:20:56;;;;;;;10.98;4.93;;;;;;;10.66;33.79;102025.06;5002868;28;20034;-73
2022/03/23 09:23:21;;;;;;;9.93;6.13;;;;;;;10.70;33.84;101989.28;5001676;28;20026;-74
2022/03/23 09:25:49;;;;;;;13.23;5.20;;;;;;;10.72;33.84;102041.00;5000492;28;20055;-74
2022/03/23 09:28:15;;;;;;;11.63;4.38;;;;;;;10.63;33.84;102029.34;5005161;28;20030;-74
2022/03/23 09:30:42;;;;;;;12.00;5.65;;;;;;;11.12;33.76;102018.34;5006225;28;20041;-73
2022/03/23 09:33:08;;;;;;;12.32;4.18;;;;;;;11.05;33.33;102033.91;5002742;28;20097;-73
2022/03/23 09:35:34;;;;;;;8.80;4.82;;;;;;;11.06;33.29;102035.69;5004723;28;20049;-74
2022/03/23 09:38:03;;;;;;;15.07;5.72;;;;;;;10.81;33.76;102026.31;5002270;28;20057;-74
2022/03/23 09:40:32;;;;;;;11.82;4.57;;;;;;;11.27;33.22;102016.91;5003733;28;20470;-74
2022/03/23 09:43:08;;;;;;;11.90;4.28;;;;;;;11.51;32.98;102012.19;5003155;28;20042;-74
2022/03/23 09:48:02;;;;;;;19.40;5.07;;;;;;;11.62;32.65;102013.31;5001466;28;20049;-74
2022/03/23 09:50:30;;;;;;;18.10;5.07;;;;;;;11.88;32.49;101993.72;4996934;28;20103;-80
2022/03/23 09:52:57;;;;;;;17.88;5.88;;;;;;;11.72;32.13;101992.47;5001763;28;20065;-74
2022/03/23 09:55:23;;;;;;;6.72;3.90;;;;;;;11.43;32.24;101970.84;5002361;28;20033;-74
2022/03/23 09:57:49;;;;;;;9.43;4.22;;;;;;;11.49;32.06;102005.13;5001380;28;20040;-74
2022/03/23 10:00:15;;;;;;;9.85;4.32;;;;;;;11.25;32.21;102005.47;4999085;28;20046;-72
2022/03/23 10:02:40;;;;;;;12.32;4.70;;;;;;;11.67;32.16;101988.88;5000420;28;20181;-72
2022/03/23 10:05:09;;;;;;;12.50;5.15;;;;;;;11.60;31.07;101999.25;4999637;28;20057;-75
2022/03/23 10:07:53;;;;;;;12.70;4.18;;;;;;;12.19;30.54;101992.56;4999517;28;20049;-73
2022/03/23 10:10:37;;;;;;;13.35;4.13;;;;;;;11.51;29.30;101959.63;5000258;28;20038;-74
2022/03/23 10:13:40;;;;;;;6.72;3.45;;;;;;;11.97;29.46;101957.09;5000223;28;20124;-75
2022/03/23 10:16:44;;;;;;;22.55;4.55;;;;;;;12.04;29.47;101964.22;5001480;28;20131;-73
2022/03/23 10:19:09;;;;;;;6.75;3.20;;;;;;;12.05;30.31;101981.78;5001764;28;20041;-73
2022/03/23 10:21:39;;;;;;;13.27;3.83;;;;;;;11.99;30.01;101982.56;5000620;28;20386;-73
2022/03/23 10:24:06;;;;;;;18.63;3.85;;;;;;;12.73;28.98;101949.63;5000642;28;20070;-73
2022/03/23 10:26:33;;;;;;;14.65;3.78;;;;;;;12.08;29.29;101980.94;4998558;28;20248;-73
2022/03/23 10:29:00;;;;;;;6.78;3.75;;;;;;;12.34;28.69;101919.16;5000744;28;20038;-74
2022/03/23 10:31:27;;;;;;;13.02;3.70;;;;;;;12.88;28.12;101933.19;5000806;28;20474;-73
2022/03/23 10:34:08;;;;;;;14.18;4.18;;;;;;;12.93;28.32;101963.13;4983475;28;20033;-74
2022/03/23 10:36:57;;;;;;;9.98;4.28;;;;;;;13.05;27.81;101952.75;4997433;28;20045;-73
2022/03/23 10:39:31;;;;;;;5.57;3.05;;;;;;;12.32;28.48;101925.25;5001485;28;20045;-74
2022/03/23 10:42:00;;;;;;;16.60;3.78;;;;;;;12.84;27.93;101929.59;4995990;28;20486;-74
2022/03/23 10:44:26;;;;;;;9.57;3.83;;;;;;;13.05;27.50;101914.97;5004741;28;20034;-73
2022/03/23 10:46:56;;;;;;;6.82;4.10;;;;;;;13.28;26.03;101908.31;4989568;28;20096;-73
2022/03/23 10:49:35;;;;;;;20.33;5.25;;;;;;;14.32;26.01;101902.38;5002118;28;20105;-73
2022/03/23 10:52:11;;;;;;;11.85;4.70;;;;;;;13.33;26.62;101913.63;5006411;28;20010;-74
2022/03/23 10:54:37;;;;;;;6.65;3.67;;;;;;;13.22;27.11;101888.84;4988027;28;20033;-75
2022/03/23 10:57:03;;;;;;;8.18;2.92;;;;;;;14.01;26.71;101875.69;5006419;28;20056;-76
2022/03/23 10:59:29;;;;;;;10.32;4.72;;;;;;;15.07;25.42;101891.47;5005033;28;20034;-77
2022/03/23 11:02:04;;;;;;;8.07;2.95;;;;;;;13.97;25.86;101873.88;5003704;28;20381;-76
2022/03/23 11:04:53;;;;;;;23.42;4.65;;;;;;;15.32;25.27;101906.56;5002403;28;20033;-77
2022/03/23 11:07:30;;;;;;;9.68;3.67;;;;;;;15.67;24.76;101903.19;5004001;28;20030;-77
2022/03/23 11:16:01;;;;;;;9.18;4.00;;;;;;;14.55;25.30;101877.06;5002258;28;20045;-75
2022/03/23 11:18:27;;;;;;;9.35;4.57;;;;;;;14.81;25.11;101846.41;5004547;28;20073;-76
2022/03/23 11:20:56;;;;;;;10.38;3.60;;;;;;;15.04;23.51;101831.53;5002852;28;20053;-77
2022/03/23 11:23:30;;;;;;;7.40;2.95;;;;;;;15.95;23.24;101856.50;4983380;28;20046;-75
2022/03/23 11:26:02;;;;;;;7.68;4.32;;;;;;;15.84;22.75;101826.50;4986678;28;20050;-75
2022/03/23 11:28:32;;;;;;;6.53;3.40;;;;;;;15.75;23.45;101816.75;5005842;28;20075;-75
2022/03/23 11:31:02;;;;;;;10.10;3.72;;;;;;;14.30;24.66;101827.53;5004800;28;20034;-76
2022/03/23 11:33:32;;;;;;;6.18;3.55;;;;;;;14.35;24.61;101804.69;5002061;28;20115;-75
2022/03/23 11:35:58;;;;;;;13.43;3.88;;;;;;;15.14;24.33;101825.41;5001624;28;20045;-74
2022/03/23 11:38:26;;;;;;;7.35;3.97;;;;;;;15.44;23.51;101822.88;5004306;28;20049;-75
2022/03/23 11:40:53;;;;;;;10.98;4.05;;;;;;;13.94;24.94;101821.09;5002926;28;20040;-74
2022/03/23 11:43:21;;;;;;;8.65;4.30;;;;;;;14.45;24.81;101819.72;5004346;28;20068;-74
2022/03/23 11:45:48;;;;;;;15.18;4.78;;;;;;;14.90;24.57;101842.03;5002037;28;20092;-74